Time;durP1;ratioP1;P1;durP2;ratioP2;P2;SDS_P1;SDS_P2;PMS_P1;PMS_P2;Temp;Humidity;BMP_temperature;BMP_pressure;BME280_temperature;BME280_humidity;BME280_pressure;Samples;Min_cycle;Max_cycle;Signal;HPM_P1;HPM_P2
2021/05/14 00:00:06;;;;;;;17.13;5.70;;;;;;;;;;4995082;28;20096;-66
2021/05/14 00:02:31;;;;;;;7.18;4.88;;;;;;;;;;4999624;28;20045;-66
2021/05/14 00:04:56;;;;;;;6.95;4.93;;;;;;;;;;5001363;28;20022;-69
2021/05/14 00:07:22;;;;;;;8.33;5.23;;;;;;;;;;4993303;28;20026;-67
2021/05/14 00:09:47;;;;;;;15.43;5.93;;;;;;;;;;4994979;28;20734;-69
2021/05/14 00:12:12;;;;;;;8.25;4.55;;;;;;;;;;4998104;28;20664;-68
2021/05/14 00:14:38;;;;;;;4.88;3.75;;;;;;;;;;4983321;28;20018;-68
2021/05/14 00:17:03;;;;;;;7.03;4.32;;;;;;;;;;4993025;28;20025;-68
2021/05/14 00:19:28;;;;;;;6.50;4.63;;;;;;;;;;4994073;28;20414;-67
2021/05/14 00:21:53;;;;;;;9.50;4.80;;;;;;;;;;4994218;28;20277;-68
2021/05/14 00:24:18;;;;;;;7.03;3.78;;;;;;;;;;4994970;28;20311;-68
2021/05/14 00:26:44;;;;;;;8.35;4.43;;;;;;;;;;5001238;28;20069;-67
2021/05/14 00:29:09;;;;;;;7.97;4.47;;;;;;;;;;5003766;28;20026;-68
2021/05/14 00:31:34;;;;;;;7.13;3.77;;;;;;;;;;5000681;28;20275;-67
2021/05/14 00:33:59;;;;;;;5.03;3.47;;;;;;;;;;4999780;28;20299;-67
2021/05/14 00:36:25;;;;;;;8.70;3.50;;;;;;;;;;4993757;28;20352;-67
2021/05/14 00:38:51;;;;;;;6.63;3.25;;;;;;;;;;5012696;28;20771;-67
2021/05/14 00:41:16;;;;;;;7.55;3.10;;;;;;;;;;4998622;28;20025;-69
2021/05/14 00:43:41;;;;;;;6.40;3.30;;;;;;;;;;4996866;28;20027;-67
2021/05/14 00:46:06;;;;;;;4.53;2.90;;;;;;;;;;4993395;28;20293;-68
2021/05/14 00:48:34;;;;;;;10.50;3.08;;;;;;;;;;4993012;28;20273;-67
2021/05/14 00:51:00;;;;;;;6.43;3.70;;;;;;;;;;4993280;28;20076;-68
2021/05/14 00:53:25;;;;;;;4.28;3.03;;;;;;;;;;4999639;28;20109;-70
2021/05/14 00:55:50;;;;;;;4.03;2.60;;;;;;;;;;4973536;28;20411;-68
2021/05/14 00:58:15;;;;;;;4.22;2.90;;;;;;;;;;5000492;28;20545;-67
2021/05/14 01:00:41;;;;;;;6.10;2.78;;;;;;;;;;4992641;28;20022;-68
2021/05/14 01:03:06;;;;;;;5.88;2.55;;;;;;;;;;4994346;28;20434;-67
2021/05/14 01:05:31;;;;;;;4.43;2.72;;;;;;;;;;4993458;28;20033;-68
2021/05/14 01:07:56;;;;;;;6.93;3.10;;;;;;;;;;5007124;28;20030;-69
2021/05/14 01:10:22;;;;;;;6.32;3.10;;;;;;;;;;4994540;28;20360;-68
2021/05/14 01:12:47;;;;;;;5.47;3.13;;;;;;;;;;4995257;28;20025;-69
2021/05/14 01:15:12;;;;;;;5.38;2.92;;;;;;;;;;4997917;28;20024;-67
2021/05/14 01:17:38;;;;;;;8.30;2.65;;;;;;;;;;5006881;28;20026;-67
2021/05/14 01:20:03;;;;;;;4.32;2.40;;;;;;;;;;4992605;28;20026;-69
2021/05/14 01:22:29;;;;;;;3.75;2.60;;;;;;;;;;4990677;28;20037;-67
2021/05/14 01:24:54;;;;;;;7.55;2.75;;;;;;;;;;4991322;28;20363;-67
2021/05/14 01:27:19;;;;;;;7.72;2.53;;;;;;;;;;4993509;28;20116;-70
2021/05/14 01:29:45;;;;;;;8.37;3.70;;;;;;;;;;4996033;28;20022;-67
2021/05/14 01:32:11;;;;;;;7.90;2.97;;;;;;;;;;5005140;28;20265;-68
2021/05/14 01:34:36;;;;;;;6.22;3.08;;;;;;;;;;4991071;28;20022;-69
2021/05/14 01:37:01;;;;;;;8.63;3.45;;;;;;;;;;4991998;28;20076;-67
2021/05/14 01:39:27;;;;;;;5.47;3.08;;;;;;;;;;5005807;28;20022;-69
2021/05/14 01:41:53;;;;;;;6.38;3.45;;;;;;;;;;5007238;28;20029;-67
2021/05/14 01:44:18;;;;;;;6.95;3.25;;;;;;;;;;4994893;28;20472;-69
2021/05/14 01:46:44;;;;;;;5.90;3.60;;;;;;;;;;5006895;28;20115;-67
2021/05/14 01:49:09;;;;;;;8.57;4.43;;;;;;;;;;4999198;28;20021;-67
2021/05/14 01:51:34;;;;;;;6.88;3.80;;;;;;;;;;5004892;28;20018;-69
2021/05/14 01:54:00;;;;;;;8.27;3.80;;;;;;;;;;4997035;28;20102;-68
2021/05/14 01:56:25;;;;;;;7.88;3.65;;;;;;;;;;4992809;28;20022;-67
2021/05/14 01:58:51;;;;;;;5.90;3.13;;;;;;;;;;4996105;28;20026;-70
2021/05/14 02:01:16;;;;;;;6.13;3.47;;;;;;;;;;4991210;28;20453;-69
2021/05/14 02:03:42;;;;;;;4.97;3.08;;;;;;;;;;5000188;28;20058;-68
2021/05/14 02:06:07;;;;;;;6.50;3.60;;;;;;;;;;4996649;28;20026;-68
2021/05/14 02:08:33;;;;;;;7.85;3.88;;;;;;;;;;4971173;28;595685;-66
2021/05/14 02:10:58;;;;;;;9.82;4.07;;;;;;;;;;4991288;28;20113;-68
2021/05/14 02:13:23;;;;;;;5.78;4.13;;;;;;;;;;4991463;28;20019;-68
2021/05/14 02:15:49;;;;;;;15.63;4.47;;;;;;;;;;4991564;28;20040;-67
2021/05/14 02:18:14;;;;;;;6.82;4.10;;;;;;;;;;4991625;28;20088;-68
2021/05/14 02:20:39;;;;;;;9.40;4.57;;;;;;;;;;4991527;28;20046;-67
2021/05/14 02:23:04;;;;;;;8.85;4.50;;;;;;;;;;4992703;28;20108;-67
2021/05/14 02:25:30;;;;;;;7.88;3.72;;;;;;;;;;4991376;28;20023;-68
2021/05/14 02:27:55;;;;;;;6.88;4.47;;;;;;;;;;4990099;28;20068;-67
2021/05/14 02:30:21;;;;;;;9.10;4.03;;;;;;;;;;5006877;28;20421;-68
2021/05/14 02:32:46;;;;;;;8.23;4.43;;;;;;;;;;4992290;28;20022;-69
2021/05/14 02:35:12;;;;;;;10.52;4.43;;;;;;;;;;4990836;28;20065;-68
2021/05/14 02:37:37;;;;;;;10.80;4.53;;;;;;;;;;4992832;28;20025;-68
2021/05/14 02:40:02;;;;;;;7.40;4.30;;;;;;;;;;4991209;28;20022;-69
2021/05/14 02:42:28;;;;;;;12.48;4.43;;;;;;;;;;4991022;28;20261;-68
2021/05/14 02:44:53;;;;;;;6.70;3.72;;;;;;;;;;4993707;28;20030;-70
2021/05/14 02:47:18;;;;;;;7.95;3.42;;;;;;;;;;4990162;28;20061;-68
2021/05/14 02:49:43;;;;;;;8.55;4.00;;;;;;;;;;4991265;28;20092;-68
2021/05/14 02:52:09;;;;;;;6.43;3.37;;;;;;;;;;4990805;28;20033;-69
2021/05/14 02:54:35;;;;;;;6.60;3.60;;;;;;;;;;4990942;28;20319;-67
2021/05/14 02:57:01;;;;;;;9.60;4.00;;;;;;;;;;4990989;28;20025;-67
2021/05/14 02:59:26;;;;;;;6.10;3.85;;;;;;;;;;4992294;28;20030;-68
2021/05/14 03:01:51;;;;;;;8.05;4.18;;;;;;;;;;4990665;28;20027;-69
2021/05/14 03:04:17;;;;;;;7.72;4.50;;;;;;;;;;4990639;28;20097;-69
2021/05/14 03:06:42;;;;;;;6.50;4.22;;;;;;;;;;4990496;28;20065;-68
2021/05/14 03:09:07;;;;;;;9.70;4.47;;;;;;;;;;5046507;23;20405;-69
2021/05/14 03:11:33;;;;;;;10.52;4.40;;;;;;;;;;5030244;28;20052;-69
2021/05/14 03:13:58;;;;;;;10.30;5.30;;;;;;;;;;5030157;28;20025;-69
2021/05/14 03:16:23;;;;;;;12.25;5.07;;;;;;;;;;5029562;28;20022;-69
2021/05/14 03:18:49;;;;;;;6.47;4.63;;;;;;;;;;5029486;28;20257;-69
2021/05/14 03:21:14;;;;;;;9.18;4.90;;;;;;;;;;5029652;28;20023;-69
2021/05/14 03:23:39;;;;;;;6.38;4.57;;;;;;;;;;5011420;28;20448;-68
2021/05/14 03:26:05;;;;;;;9.80;5.50;;;;;;;;;;5029300;28;20006;-68
2021/05/14 03:28:30;;;;;;;11.68;5.50;;;;;;;;;;5011550;28;20531;-69
2021/05/14 03:30:55;;;;;;;11.10;5.85;;;;;;;;;;5029037;28;20057;-68
2021/05/14 03:33:21;;;;;;;9.13;5.83;;;;;;;;;;5029197;28;20030;-68
2021/05/14 03:35:47;;;;;;;11.68;5.90;;;;;;;;;;5029509;28;20724;-67
2021/05/14 03:38:12;;;;;;;8.20;5.65;;;;;;;;;;5029008;28;20067;-66
2021/05/14 03:40:40;;;;;;;8.52;5.03;;;;;;;;;;5029306;28;20108;-69
2021/05/14 03:43:05;;;;;;;9.27;5.93;;;;;;;;;;5028857;28;20029;-68
2021/05/14 03:45:31;;;;;;;10.77;6.07;;;;;;;;;;5029777;28;20014;-68
2021/05/14 03:47:57;;;;;;;10.32;5.95;;;;;;;;;;5028695;28;20017;-69
2021/05/14 03:50:23;;;;;;;11.75;5.55;;;;;;;;;;5031521;28;20075;-68
2021/05/14 03:52:48;;;;;;;8.95;6.65;;;;;;;;;;5032067;28;20080;-68
2021/05/14 03:55:13;;;;;;;8.13;5.47;;;;;;;;;;5032244;28;20026;-70
2021/05/14 03:57:39;;;;;;;9.85;6.18;;;;;;;;;;5032717;28;20379;-69
2021/05/14 04:00:04;;;;;;;9.10;6.03;;;;;;;;;;5032949;28;20018;-68
2021/05/14 04:02:29;;;;;;;7.78;5.45;;;;;;;;;;5032092;28;20087;-69
2021/05/14 04:04:55;;;;;;;10.13;5.68;;;;;;;;;;5032772;28;20021;-70
2021/05/14 04:07:21;;;;;;;15.52;5.43;;;;;;;;;;5032072;28;20022;-69
2021/05/14 04:10:04;;;;;;;8.52;5.70;;;;;;;;;;5031958;28;20047;-69
2021/05/14 04:15:04;;;;;;;8.18;6.00;;;;;;;;;;5032305;28;20024;-67
2021/05/14 04:17:29;;;;;;;7.00;5.10;;;;;;;;;;5032189;28;20190;-68
2021/05/14 04:19:55;;;;;;;10.18;5.22;;;;;;;;;;5032124;28;20014;-68
2021/05/14 04:22:20;;;;;;;8.45;5.20;;;;;;;;;;5031532;28;20022;-68
2021/05/14 04:24:46;;;;;;;9.27;5.63;;;;;;;;;;5032126;28;20033;-67
2021/05/14 04:27:14;;;;;;;8.65;5.35;;;;;;;;;;5031916;28;20417;-69
2021/05/14 04:29:39;;;;;;;6.57;4.50;;;;;;;;;;5032728;28;20029;-68
2021/05/14 04:32:04;;;;;;;9.77;3.67;;;;;;;;;;5031891;28;20025;-69
2021/05/14 04:34:29;;;;;;;6.60;4.47;;;;;;;;;;5031507;28;20545;-68
2021/05/14 04:36:55;;;;;;;6.88;3.78;;;;;;;;;;5031596;28;20037;-69
2021/05/14 04:39:20;;;;;;;7.70;3.97;;;;;;;;;;5031176;28;20033;-69
2021/05/14 04:41:45;;;;;;;5.55;4.07;;;;;;;;;;5031617;28;20434;-69
2021/05/14 04:44:10;;;;;;;7.95;3.83;;;;;;;;;;5031517;28;20096;-68
2021/05/14 04:46:36;;;;;;;7.40;4.53;;;;;;;;;;5031516;28;20036;-69
2021/05/14 04:49:01;;;;;;;6.85;3.85;;;;;;;;;;5031600;28;20033;-69
2021/05/14 04:51:28;;;;;;;4.50;3.10;;;;;;;;;;5031495;28;20108;-68
2021/05/14 04:53:53;;;;;;;6.70;4.05;;;;;;;;;;5030150;28;20033;-69
2021/05/14 04:56:18;;;;;;;4.50;3.30;;;;;;;;;;5031437;28;20029;-69
2021/05/14 04:58:44;;;;;;;6.18;3.75;;;;;;;;;;5030695;28;20029;-69
2021/05/14 05:01:09;;;;;;;7.03;3.80;;;;;;;;;;5030778;28;20028;-68
2021/05/14 05:03:35;;;;;;;5.65;3.30;;;;;;;;;;5031144;28;20360;-69
2021/05/14 05:06:03;;;;;;;9.77;3.85;;;;;;;;;;5031917;28;20030;-69
2021/05/14 05:08:28;;;;;;;9.18;4.30;;;;;;;;;;5031344;28;20734;-69
2021/05/14 05:10:53;;;;;;;10.40;3.40;;;;;;;;;;5031164;28;20052;-69
2021/05/14 05:13:18;;;;;;;12.25;3.63;;;;;;;;;;5031306;28;20347;-69
2021/05/14 05:15:43;;;;;;;7.20;3.53;;;;;;;;;;5031166;28;20517;-68
2021/05/14 05:18:09;;;;;;;9.00;3.63;;;;;;;;;;5030751;28;20284;-68
2021/05/14 05:20:34;;;;;;;6.95;3.35;;;;;;;;;;5030896;28;20057;-68
2021/05/14 05:22:59;;;;;;;7.72;3.53;;;;;;;;;;5013542;28;20491;-69
2021/05/14 05:25:24;;;;;;;7.10;3.23;;;;;;;;;;5031029;28;20068;-69
2021/05/14 05:27:49;;;;;;;9.85;3.70;;;;;;;;;;5030550;28;20293;-69
2021/05/14 05:30:16;;;;;;;4.00;2.80;;;;;;;;;;5030955;28;20501;-69
2021/05/14 05:32:41;;;;;;;5.85;2.88;;;;;;;;;;5029754;28;20493;-69
2021/05/14 05:35:07;;;;;;;6.28;3.15;;;;;;;;;;5031013;28;20028;-69
2021/05/14 05:37:32;;;;;;;6.55;3.10;;;;;;;;;;5029117;28;20030;-69
2021/05/14 05:39:57;;;;;;;6.00;3.78;;;;;;;;;;5020109;28;20028;-69
2021/05/14 05:42:23;;;;;;;6.28;3.20;;;;;;;;;;5021785;28;20030;-67
2021/05/14 05:44:48;;;;;;;5.95;3.40;;;;;;;;;;5027829;28;20013;-69
2021/05/14 05:47:13;;;;;;;5.50;3.55;;;;;;;;;;5028407;28;20024;-68
2021/05/14 05:49:38;;;;;;;7.18;3.00;;;;;;;;;;5026068;28;20025;-69
2021/05/14 05:52:03;;;;;;;6.05;2.92;;;;;;;;;;5022097;28;20025;-68
2021/05/14 05:54:29;;;;;;;5.07;2.95;;;;;;;;;;5028978;28;20033;-69
2021/05/14 05:56:57;;;;;;;6.50;3.53;;;;;;;;;;5009975;28;20017;-69
2021/05/14 05:59:22;;;;;;;6.38;3.05;;;;;;;;;;5026830;28;20315;-69
2021/05/14 06:01:49;;;;;;;5.82;2.67;;;;;;;;;;5027597;28;20123;-69
2021/05/14 06:04:14;;;;;;;4.03;2.45;;;;;;;;;;5023987;28;20306;-69
2021/05/14 06:06:39;;;;;;;5.75;2.90;;;;;;;;;;5024009;28;20021;-69
2021/05/14 06:09:05;;;;;;;4.90;3.10;;;;;;;;;;5024687;28;20120;-69
2021/05/14 06:11:30;;;;;;;5.63;3.22;;;;;;;;;;5014397;28;20112;-68
2021/05/14 06:13:55;;;;;;;5.25;3.58;;;;;;;;;;5009995;28;20205;-69
2021/05/14 06:16:20;;;;;;;9.20;3.70;;;;;;;;;;5028082;28;20110;-68
2021/05/14 06:21:30;;;;;;;4.93;2.50;;;;;;;;;;5021769;28;20080;-70
2021/05/14 06:23:56;;;;;;;8.35;3.28;;;;;;;;;;5025963;28;20022;-67
2021/05/14 06:26:21;;;;;;;7.03;3.42;;;;;;;;;;5019470;28;20025;-68
2021/05/14 06:28:46;;;;;;;13.25;3.65;;;;;;;;;;5025829;28;20339;-67
2021/05/14 06:31:11;;;;;;;5.25;2.83;;;;;;;;;;5029206;28;20021;-68
2021/05/14 06:33:36;;;;;;;9.07;4.28;;;;;;;;;;5011764;28;20029;-68
2021/05/14 06:36:02;;;;;;;8.15;3.40;;;;;;;;;;5030176;28;20400;-68
2021/05/14 06:38:28;;;;;;;4.40;2.63;;;;;;;;;;5029476;28;20112;-69
2021/05/14 06:40:53;;;;;;;5.82;2.90;;;;;;;;;;5029960;28;20037;-69
2021/05/14 06:43:19;;;;;;;5.45;3.10;;;;;;;;;;5029702;28;20029;-69
2021/05/14 06:45:44;;;;;;;11.50;3.08;;;;;;;;;;5030442;28;20064;-69
2021/05/14 06:48:13;;;;;;;5.53;2.70;;;;;;;;;;5029427;28;20120;-69
2021/05/14 06:50:38;;;;;;;6.15;3.13;;;;;;;;;;5027765;28;20079;-69
2021/05/14 06:53:05;;;;;;;5.73;3.00;;;;;;;;;;5010798;28;20429;-68
2021/05/14 06:55:30;;;;;;;7.82;2.95;;;;;;;;;;5021260;28;20313;-69
2021/05/14 06:57:55;;;;;;;3.08;1.63;;;;;;;;;;5029886;28;20022;-69
2021/05/14 07:00:20;;;;;;;5.10;3.00;;;;;;;;;;5029808;28;20032;-69
2021/05/14 07:02:46;;;;;;;7.22;3.42;;;;;;;;;;5030236;28;20461;-68
2021/05/14 07:05:15;;;;;;;5.05;2.85;;;;;;;;;;5029908;28;20028;-69
2021/05/14 07:07:40;;;;;;;9.40;2.75;;;;;;;;;;5028424;28;20030;-69
2021/05/14 07:10:06;;;;;;;6.43;2.72;;;;;;;;;;5028648;28;20030;-68
2021/05/14 07:12:33;;;;;;;4.28;2.13;;;;;;;;;;5029969;28;20025;-69
2021/05/14 07:14:58;;;;;;;7.85;2.90;;;;;;;;;;5029967;28;20021;-69
2021/05/14 07:17:23;;;;;;;9.63;3.50;;;;;;;;;;5028630;28;20032;-69
2021/05/14 07:19:49;;;;;;;8.50;3.47;;;;;;;;;;5029592;28;20112;-69
2021/05/14 07:22:14;;;;;;;11.90;2.88;;;;;;;;;;5029713;28;20260;-69
2021/05/14 07:24:40;;;;;;;4.80;2.38;;;;;;;;;;5030496;28;20022;-70
2021/05/14 07:27:05;;;;;;;5.22;3.00;;;;;;;;;;5033085;28;20389;-70
2021/05/14 07:29:30;;;;;;;11.90;4.40;;;;;;;;;;5033366;28;20033;-69
2021/05/14 07:31:55;;;;;;;6.77;3.00;;;;;;;;;;5033129;28;20256;-69
2021/05/14 07:34:20;;;;;;;5.32;2.60;;;;;;;;;;5033102;28;20296;-67
2021/05/14 07:36:46;;;;;;;8.57;3.23;;;;;;;;;;5032840;28;20114;-69
2021/05/14 07:39:11;;;;;;;7.85;4.15;;;;;;;;;;5032929;28;20286;-68
2021/05/14 07:41:36;;;;;;;10.18;3.17;;;;;;;;;;5032361;28;20033;-70
2021/05/14 07:44:01;;;;;;;14.55;3.38;;;;;;;;;;5031589;28;20018;-67
2021/05/14 07:46:27;;;;;;;8.63;3.42;;;;;;;;;;5028026;28;20036;-67
2021/05/14 07:48:52;;;;;;;8.98;3.63;;;;;;;;;;5022358;28;20029;-68
2021/05/14 07:51:17;;;;;;;6.83;3.40;;;;;;;;;;5029927;28;20018;-68
2021/05/14 07:53:42;;;;;;;6.10;3.78;;;;;;;;;;5032404;28;20748;-70
2021/05/14 07:56:08;;;;;;;6.47;2.73;;;;;;;;;;5031429;28;20049;-68
2021/05/14 07:58:33;;;;;;;8.52;2.78;;;;;;;;;;5032507;28;20367;-69
2021/05/14 08:00:58;;;;;;;8.18;3.33;;;;;;;;;;5025332;28;20024;-69
2021/05/14 08:03:24;;;;;;;5.03;2.60;;;;;;;;;;5030444;28;20028;-69
2021/05/14 08:05:50;;;;;;;5.78;3.38;;;;;;;;;;5029695;28;20247;-68
2021/05/14 08:08:18;;;;;;;10.07;3.60;;;;;;;;;;5029096;28;20428;-68
2021/05/14 08:10:43;;;;;;;6.45;2.83;;;;;;;;;;5027731;28;20163;-69
2021/05/14 08:13:08;;;;;;;5.90;2.88;;;;;;;;;;5027131;28;20111;-68
2021/05/14 08:15:34;;;;;;;8.88;2.92;;;;;;;;;;5027324;28;20141;-68
2021/05/14 08:17:59;;;;;;;5.72;2.53;;;;;;;;;;5027000;28;20025;-69
2021/05/14 08:20:24;;;;;;;5.65;2.90;;;;;;;;;;5028469;28;20547;-67
2021/05/14 08:22:50;;;;;;;5.88;2.50;;;;;;;;;;5027897;28;20509;-69
2021/05/14 08:25:15;;;;;;;7.50;2.47;;;;;;;;;;5026977;28;20565;-69
2021/05/14 08:27:41;;;;;;;5.05;2.45;;;;;;;;;;5026411;28;20033;-66
2021/05/14 08:30:07;;;;;;;7.15;2.88;;;;;;;;;;5027678;28;20283;-69
2021/05/14 08:32:32;;;;;;;6.40;2.45;;;;;;;;;;5027737;28;20013;-69
2021/05/14 08:34:57;;;;;;;9.48;2.67;;;;;;;;;;5027132;28;20017;-68
2021/05/14 08:37:23;;;;;;;6.28;2.38;;;;;;;;;;5026840;28;20168;-69
2021/05/14 08:39:48;;;;;;;9.93;2.65;;;;;;;;;;5027673;28;20564;-69
2021/05/14 08:42:13;;;;;;;9.13;2.10;;;;;;;;;;5030630;28;20079;-67
2021/05/14 08:44:39;;;;;;;5.07;2.10;;;;;;;;;;5032580;28;20259;-70
2021/05/14 08:47:05;;;;;;;4.85;2.00;;;;;;;;;;5031775;28;20014;-70
2021/05/14 08:49:30;;;;;;;5.15;2.88;;;;;;;;;;5031925;28;20033;-68
2021/05/14 08:51:56;;;;;;;5.25;2.45;;;;;;;;;;5031937;28;20112;-68
2021/05/14 08:54:21;;;;;;;8.45;2.47;;;;;;;;;;5032343;28;20014;-68
2021/05/14 08:56:46;;;;;;;7.80;2.70;;;;;;;;;;5031827;28;20500;-68
2021/05/14 08:59:11;;;;;;;5.63;3.47;;;;;;;;;;5031861;28;20291;-68
2021/05/14 09:01:37;;;;;;;5.80;3.15;;;;;;;;;;5031624;28;20026;-69
2021/05/14 09:04:07;;;;;;;6.97;2.70;;;;;;;;;;5031573;28;20033;-69
2021/05/14 09:06:36;;;;;;;4.25;1.35;;;;;;;;;;5031512;28;20022;-67
2021/05/14 09:09:09;;;;;;;4.82;1.95;;;;;;;;;;5055708;22;20103;-63
2021/05/14 09:11:45;;;;;;;3.95;1.27;;;;;;;;;;5031622;28;20101;-62
2021/05/14 09:14:29;;;;;;;5.07;1.70;;;;;;;;;;5031374;28;20032;-63
2021/05/14 09:16:54;;;;;;;5.18;1.70;;;;;;;;;;5012090;28;20029;-63
2021/05/14 09:19:29;;;;;;;2.80;1.52;;;;;;;;;;5029883;28;20744;-64
2021/05/14 09:22:08;;;;;;;4.75;1.10;;;;;;;;;;5030197;28;20021;-63
2021/05/14 09:24:33;;;;;;;6.35;1.40;;;;;;;;;;5020293;28;20056;-64
2021/05/14 09:26:58;;;;;;;3.60;1.30;;;;;;;;;;5026175;28;20026;-64
2021/05/14 09:29:37;;;;;;;2.10;0.93;;;;;;;;;;5023304;28;20276;-63
2021/05/14 09:32:40;;;;;;;3.22;1.20;;;;;;;;;;5026564;28;20094;-65
2021/05/14 09:35:06;;;;;;;2.88;1.00;;;;;;;;;;4936859;29;20729;-65
2021/05/14 09:37:31;;;;;;;4.90;1.50;;;;;;;;;;5010000;28;20052;-64
2021/05/14 09:40:12;;;;;;;5.18;1.20;;;;;;;;;;5024155;28;20025;-64
2021/05/14 09:42:38;;;;;;;4.55;1.40;;;;;;;;;;5025518;28;20508;-62
2021/05/14 09:45:13;;;;;;;5.88;1.17;;;;;;;;;;5024915;28;20033;-64
2021/05/14 09:47:38;;;;;;;6.25;1.70;;;;;;;;;;5025550;28;20029;-65
2021/05/14 09:50:22;;;;;;;4.93;1.30;;;;;;;;;;5024663;28;20031;-64
2021/05/14 09:52:59;;;;;;;2.30;1.15;;;;;;;;;;5024478;28;20018;-64
2021/05/14 09:55:24;;;;;;;4.50;1.33;;;;;;;;;;5025163;28;20052;-62
2021/05/14 09:57:53;;;;;;;7.90;1.40;;;;;;;;;;5024710;28;20014;-62
2021/05/14 10:00:19;;;;;;;4.60;1.65;;;;;;;;;;5027286;28;20300;-65
2021/05/14 10:02:46;;;;;;;6.13;1.42;;;;;;;;;;5026296;28;20091;-62
2021/05/14 10:05:12;;;;;;;6.20;1.25;;;;;;;;;;5027828;28;20025;-66
2021/05/14 10:07:39;;;;;;;6.78;2.50;;;;;;;;;;5025389;28;20044;-64
2021/05/14 10:10:08;;;;;;;2.45;1.10;;;;;;;;;;5025102;28;20067;-65
2021/05/14 10:12:34;;;;;;;9.32;1.98;;;;;;;;;;5025917;28;20056;-64
2021/05/14 10:15:01;;;;;;;3.70;1.52;;;;;;;;;;5027260;28;20025;-64
2021/05/14 10:17:26;;;;;;;3.25;1.23;;;;;;;;;;5025128;28;20023;-65
2021/05/14 10:19:53;;;;;;;4.55;1.60;;;;;;;;;;5025126;28;20100;-64
2021/05/14 10:22:18;;;;;;;4.97;1.33;;;;;;;;;;5029257;28;20457;-65
2021/05/14 10:24:47;;;;;;;5.55;1.70;;;;;;;;;;5025031;28;20057;-63
2021/05/14 10:27:17;;;;;;;2.80;1.25;;;;;;;;;;5024967;28;20460;-64
2021/05/14 10:29:43;;;;;;;3.42;1.40;;;;;;;;;;5027437;28;20029;-64
2021/05/14 10:32:09;;;;;;;6.88;1.20;;;;;;;;;;5024583;28;20112;-65
2021/05/14 10:34:34;;;;;;;4.50;1.42;;;;;;;;;;5024987;28;20101;-66
2021/05/14 10:36:59;;;;;;;5.05;1.80;;;;;;;;;;5025170;28;20033;-65
2021/05/14 10:39:32;;;;;;;5.27;1.30;;;;;;;;;;5024747;28;20485;-66
2021/05/14 10:42:01;;;;;;;2.13;1.02;;;;;;;;;;5024986;28;20264;-66
2021/05/14 10:44:41;;;;;;;5.53;1.77;;;;;;;;;;5024720;28;20009;-65
2021/05/14 10:47:22;;;;;;;5.82;1.10;;;;;;;;;;5024803;28;20707;-66
2021/05/14 10:49:51;;;;;;;5.57;1.15;;;;;;;;;;5024684;28;20549;-65
2021/05/14 10:52:16;;;;;;;3.97;1.00;;;;;;;;;;5025940;28;20033;-65
2021/05/14 10:54:42;;;;;;;6.70;1.08;;;;;;;;;;5024687;28;20021;-66
2021/05/14 10:57:08;;;;;;;5.40;1.00;;;;;;;;;;5024525;28;20033;-65
2021/05/14 10:59:36;;;;;;;5.18;1.30;;;;;;;;;;5025386;28;20409;-64
2021/05/14 11:02:22;;;;;;;9.60;1.27;;;;;;;;;;5028729;28;20020;-66
2021/05/14 11:04:48;;;;;;;5.90;0.80;;;;;;;;;;5029986;28;20025;-65
2021/05/14 11:07:31;;;;;;;7.10;1.00;;;;;;;;;;5028317;28;20052;-65
2021/05/14 11:10:15;;;;;;;4.00;1.25;;;;;;;;;;5028289;28;20021;-65
2021/05/14 11:12:41;;;;;;;4.43;1.15;;;;;;;;;;5029039;28;20031;-64
2021/05/14 11:15:29;;;;;;;5.30;1.13;;;;;;;;;;5026951;28;20528;-65
2021/05/14 11:18:07;;;;;;;5.65;1.13;;;;;;;;;;5014897;28;20140;-63
2021/05/14 11:20:48;;;;;;;2.50;1.20;;;;;;;;;;5028393;28;20021;-65
2021/05/14 11:23:32;;;;;;;6.18;1.25;;;;;;;;;;5028613;28;20025;-65
2021/05/14 11:25:57;;;;;;;3.63;1.33;;;;;;;;;;5011656;28;20120;-65
2021/05/14 11:28:43;;;;;;;4.13;1.35;;;;;;;;;;5029182;28;20482;-65
2021/05/14 11:31:12;;;;;;;4.82;1.48;;;;;;;;;;5028027;28;20042;-66
2021/05/14 11:33:41;;;;;;;3.50;1.23;;;;;;;;;;5028050;28;20026;-64
2021/05/14 11:36:06;;;;;;;3.45;1.08;;;;;;;;;;5027618;28;20021;-65
2021/05/14 11:38:31;;;;;;;14.52;1.55;;;;;;;;;;5025951;28;20030;-64
2021/05/14 11:40:57;;;;;;;7.88;2.45;;;;;;;;;;5027604;28;20371;-64
2021/05/14 11:43:24;;;;;;;1.85;1.02;;;;;;;;;;5028366;28;20498;-64
2021/05/14 11:45:49;;;;;;;7.47;1.38;;;;;;;;;;5028684;28;20037;-65
2021/05/14 11:48:22;;;;;;;4.38;1.20;;;;;;;;;;5022487;28;20374;-64
2021/05/14 11:50:48;;;;;;;4.57;1.30;;;;;;;;;;5022963;28;20056;-62
2021/05/14 11:53:13;;;;;;;10.38;1.10;;;;;;;;;;5024685;28;20033;-64
2021/05/14 11:55:40;;;;;;;7.18;1.30;;;;;;;;;;5025824;28;20235;-64
2021/05/14 11:58:06;;;;;;;5.10;1.73;;;;;;;;;;5026861;28;20060;-64
2021/05/14 12:00:32;;;;;;;4.63;1.55;;;;;;;;;;5026397;28;20110;-65
2021/05/14 12:02:58;;;;;;;3.05;1.20;;;;;;;;;;5023836;28;20903;-65
2021/05/14 12:05:24;;;;;;;2.92;1.08;;;;;;;;;;5023210;28;20509;-65
2021/05/14 12:07:50;;;;;;;4.65;1.95;;;;;;;;;;5024978;28;20029;-66
2021/05/14 12:10:16;;;;;;;3.25;1.60;;;;;;;;;;5026654;28;20433;-65
2021/05/14 12:12:42;;;;;;;5.82;1.30;;;;;;;;;;5025683;28;20021;-64
2021/05/14 12:15:11;;;;;;;5.78;1.50;;;;;;;;;;5026239;28;20017;-65
2021/05/14 12:17:37;;;;;;;5.03;1.40;;;;;;;;;;5008233;28;20099;-64
2021/05/14 12:20:37;;;;;;;6.47;1.20;;;;;;;;;;5024951;28;20037;-65
2021/05/14 12:23:03;;;;;;;6.33;1.40;;;;;;;;;;4971795;28;20033;-65
2021/05/14 12:25:29;;;;;;;5.40;1.10;;;;;;;;;;5028180;28;20071;-65
2021/05/14 12:27:56;;;;;;;5.32;1.63;;;;;;;;;;5026220;28;20022;-64
2021/05/14 12:30:21;;;;;;;8.45;1.40;;;;;;;;;;5024558;28;20045;-66
2021/05/14 12:32:54;;;;;;;3.00;1.75;;;;;;;;;;5025549;28;20505;-65
2021/05/14 12:35:21;;;;;;;3.30;2.00;;;;;;;;;;5025875;28;20433;-65
2021/05/14 12:37:56;;;;;;;5.68;1.00;;;;;;;;;;5024732;28;20075;-66
2021/05/14 12:40:28;;;;;;;2.88;1.20;;;;;;;;;;5026224;28;20478;-64
2021/05/14 12:43:02;;;;;;;4.65;1.30;;;;;;;;;;5026014;28;20029;-65
2021/05/14 12:45:28;;;;;;;2.53;0.90;;;;;;;;;;5008713;28;20024;-64
2021/05/14 12:47:55;;;;;;;2.00;0.83;;;;;;;;;;5026428;28;20026;-66
2021/05/14 12:50:24;;;;;;;4.72;1.08;;;;;;;;;;5026252;28;20311;-66
2021/05/14 12:52:49;;;;;;;11.88;1.88;;;;;;;;;;5024933;28;20033;-66
2021/05/14 12:55:15;;;;;;;5.13;1.03;;;;;;;;;;5007994;28;20393;-65
2021/05/14 12:57:52;;;;;;;1.83;0.95;;;;;;;;;;5024462;28;20284;-64
2021/05/14 13:00:19;;;;;;;1.75;0.80;;;;;;;;;;5026360;28;20092;-65
2021/05/14 13:02:51;;;;;;;1.60;1.00;;;;;;;;;;5026003;28;20036;-64
2021/05/14 13:05:17;;;;;;;2.25;0.98;;;;;;;;;;5027276;28;20617;-65
2021/05/14 13:07:57;;;;;;;2.55;0.90;;;;;;;;;;5025337;28;20026;-66
2021/05/14 13:10:32;;;;;;;4.68;1.02;;;;;;;;;;5027061;28;20036;-65
2021/05/14 13:12:57;;;;;;;1.63;0.75;;;;;;;;;;5026455;28;20022;-65
2021/05/14 13:15:22;;;;;;;0.80;0.50;;;;;;;;;;5025956;28;20078;-65
2021/05/14 13:17:48;;;;;;;7.40;1.10;;;;;;;;;;5024467;28;20260;-64
2021/05/14 13:20:14;;;;;;;3.58;1.00;;;;;;;;;;5025283;28;20291;-64
2021/05/14 13:22:39;;;;;;;2.75;0.63;;;;;;;;;;5026913;28;20422;-65
2021/05/14 13:25:04;;;;;;;2.42;0.60;;;;;;;;;;5026932;28;20664;-66
2021/05/14 13:27:29;;;;;;;4.20;0.70;;;;;;;;;;5028981;28;20064;-65
2021/05/14 13:29:55;;;;;;;2.23;0.83;;;;;;;;;;5026425;28;20058;-65
2021/05/14 13:32:20;;;;;;;1.58;0.90;;;;;;;;;;5025029;28;20263;-65
2021/05/14 13:34:45;;;;;;;3.00;0.80;;;;;;;;;;5024991;28;20037;-63
2021/05/14 13:37:10;;;;;;;13.93;1.80;;;;;;;;;;5026801;28;20283;-66
2021/05/14 13:39:36;;;;;;;0.83;0.43;;;;;;;;;;5024317;28;20358;-63
2021/05/14 13:42:01;;;;;;;4.10;0.93;;;;;;;;;;5025720;28;20264;-66
2021/05/14 13:44:26;;;;;;;1.95;0.55;;;;;;;;;;5025837;28;20025;-64
2021/05/14 13:46:52;;;;;;;1.10;0.67;;;;;;;;;;5024859;28;20386;-64
2021/05/14 13:49:18;;;;;;;1.13;0.60;;;;;;;;;;5025674;28;20318;-65
2021/05/14 13:51:43;;;;;;;3.33;0.75;;;;;;;;;;5025781;28;20264;-65
2021/05/14 13:54:09;;;;;;;3.60;0.63;;;;;;;;;;5007727;28;20041;-64
2021/05/14 13:56:34;;;;;;;1.43;0.47;;;;;;;;;;5025073;28;20024;-65
2021/05/14 13:58:59;;;;;;;2.45;0.60;;;;;;;;;;5025208;28;20369;-64
2021/05/14 14:01:24;;;;;;;2.63;0.80;;;;;;;;;;5025330;28;20122;-64
2021/05/14 14:03:49;;;;;;;3.80;1.23;;;;;;;;;;5027035;28;20021;-64
2021/05/14 14:06:15;;;;;;;1.13;0.55;;;;;;;;;;5024660;28;20257;-65
2021/05/14 14:08:40;;;;;;;3.60;0.97;;;;;;;;;;5024512;28;20037;-64
2021/05/14 14:11:05;;;;;;;1.13;0.63;;;;;;;;;;5025256;28;20597;-65
2021/05/14 14:13:30;;;;;;;3.13;0.85;;;;;;;;;;5024321;28;20572;-65
2021/05/14 14:15:56;;;;;;;0.77;0.55;;;;;;;;;;5023281;28;20080;-65
2021/05/14 14:18:21;;;;;;;1.48;0.60;;;;;;;;;;5024851;28;20048;-64
2021/05/14 14:20:46;;;;;;;3.05;0.60;;;;;;;;;;5024353;28;20021;-66
2021/05/14 14:23:11;;;;;;;2.20;0.68;;;;;;;;;;5025637;28;20025;-64
2021/05/14 14:25:36;;;;;;;1.37;0.60;;;;;;;;;;5025338;28;20029;-64
2021/05/14 14:28:02;;;;;;;1.27;0.57;;;;;;;;;;5023627;28;20375;-63
2021/05/14 14:30:27;;;;;;;4.18;0.82;;;;;;;;;;5026667;28;20027;-64
2021/05/14 14:32:53;;;;;;;2.20;0.70;;;;;;;;;;5021565;28;20029;-66
2021/05/14 14:35:18;;;;;;;8.52;0.70;;;;;;;;;;5023372;28;20025;-66
2021/05/14 14:37:43;;;;;;;7.82;0.98;;;;;;;;;;5024386;28;20497;-65
2021/05/14 14:40:10;;;;;;;4.45;0.68;;;;;;;;;;5024637;28;20024;-66
2021/05/14 14:42:35;;;;;;;2.28;0.95;;;;;;;;;;5025784;28;20417;-66